This is the latest recevied weather packets stored in our database for station/object YO2MAS-13. If no packets are shown the sender has not sent any weather packets the latest 10 day(s).
| Time | Temp. | Humidity | Pressure | Rain* | Wind** | Luminosity | Snow |
|---|---|---|---|---|---|---|---|
| 1777567523 | 16.11° C | 33% | 1026.4 hPa | - | - | - | - |
| 1777566623 | 16.11° C | 32% | 1026.3 hPa | - | - | - | - |
| 1777565723 | 17.22° C | 31% | 1026 hPa | - | - | - | - |
| 1777564823 | 16.67° C | 32% | 1026 hPa | - | - | - | - |
| 1777563923 | 17.78° C | 32% | 1025.9 hPa | - | - | - | - |
| 1777563023 | 17.22° C | 32% | 1026 hPa | - | - | - | - |
| 1777562123 | 18.33° C | 32% | 1025.9 hPa | - | - | - | - |
| 1777561223 | 17.22° C | 33% | 1026 hPa | - | - | - | - |
| 1777560322 | 18.33° C | 33% | 1025.9 hPa | - | - | - | - |
| 1777559423 | 17.78° C | 33% | 1025.9 hPa | - | - | - | - |
| 1777558523 | 18.33° C | 33% | 1025.8 hPa | - | - | - | - |
| 1777557656 | 18.33° C | 34% | 1025.8 hPa | - | - | - | - |
| 1777557623 | 18.33° C | 34% | 1025.8 hPa | - | - | - | - |
| 1777556723 | 19.44° C | 34% | 1025.9 hPa | - | - | - | - |
| 1777555825 | 20° C | 35% | 1025.9 hPa | - | - | - | - |
| 1777554923 | 20° C | 35% | 1025.9 hPa | - | - | - | - |
| 1777554023 | 18.89° C | 34% | 1026 hPa | - | - | - | - |
| 1777553123 | 18.89° C | 35% | 1026.1 hPa | - | - | - | - |
| 1777552223 | 18.89° C | 35% | 1026.1 hPa | - | - | - | - |
| 1777551323 | 19.44° C | 37% | 1026.2 hPa | - | - | - | - |
| 1777550423 | 18.33° C | 36% | 1026.4 hPa | - | - | - | - |
| 1777549522 | 18.33° C | 37% | 1026.5 hPa | - | - | - | - |
| 1777548623 | 18.33° C | 39% | 1026.5 hPa | - | - | - | - |
| 1777547723 | 17.78° C | 41% | 1026.7 hPa | - | - | - | - |
| 1777546823 | 18.33° C | 41% | 1026.7 hPa | - | - | - | - |
* Rain since midnight (hover to see other rain measurements)
** Current wind speed in m/s (hover to see current wind gust speed)